sensor_id;sensor_type;location;lat;lon;timestamp;P1;durP1;ratioP1;P2;durP2;ratioP2
18471;SDS011;9365;48.258;12.518;2022-07-12T00:02:48;4.17;;;3.46;;
18471;SDS011;9365;48.258;12.518;2022-07-12T00:08:16;4.17;;;3.2;;
18471;SDS011;9365;48.258;12.518;2022-07-12T00:13:43;5.83;;;3.4299999999999997;;
18471;SDS011;9365;48.258;12.518;2022-07-12T00:19:11;3.7700000000000005;;;3.0100000000000002;;
18471;SDS011;9365;48.258;12.518;2022-07-12T00:24:38;4.09;;;3.13;;
18471;SDS011;9365;48.258;12.518;2022-07-12T00:30:06;6.25;;;3.5;;
18471;SDS011;9365;48.258;12.518;2022-07-12T00:35:34;4.96;;;3.6100000000000008;;
18471;SDS011;9365;48.258;12.518;2022-07-12T00:41:02;4.46;;;3.53;;
18471;SDS011;9365;48.258;12.518;2022-07-12T00:46:29;4.26;;;3.5200000000000005;;
18471;SDS011;9365;48.258;12.518;2022-07-12T00:51:58;4.39;;;3.7600000000000002;;
18471;SDS011;9365;48.258;12.518;2022-07-12T00:57:26;5.73;;;3.4099999999999993;;
18471;SDS011;9365;48.258;12.518;2022-07-12T01:02:54;4.25;;;3.69;;
18471;SDS011;9365;48.258;12.518;2022-07-12T01:08:22;4.510000000000001;;;4.08;;
18471;SDS011;9365;48.258;12.518;2022-07-12T01:13:51;4.65;;;3.87;;
18471;SDS011;9365;48.258;12.518;2022-07-12T01:19:20;4.0;;;3.3899999999999997;;
18471;SDS011;9365;48.258;12.518;2022-07-12T01:24:48;6.58;;;3.6900000000000004;;
18471;SDS011;9365;48.258;12.518;2022-07-12T01:30:15;4.41;;;3.46;;
18471;SDS011;9365;48.258;12.518;2022-07-12T01:35:43;4.129999999999999;;;3.6699999999999995;;
18471;SDS011;9365;48.258;12.518;2022-07-12T01:41:11;4.93;;;3.4800000000000004;;
18471;SDS011;9365;48.258;12.518;2022-07-12T01:46:39;4.4;;;3.2199999999999998;;
18471;SDS011;9365;48.258;12.518;2022-07-12T01:52:06;4.680000000000001;;;3.4799999999999995;;
18471;SDS011;9365;48.258;12.518;2022-07-12T01:57:34;3.5699999999999994;;;3.22;;
18471;SDS011;9365;48.258;12.518;2022-07-12T02:03:02;7.589999999999999;;;3.59;;
18471;SDS011;9365;48.258;12.518;2022-07-12T02:08:30;3.85;;;3.2299999999999995;;
18471;SDS011;9365;48.258;12.518;2022-07-12T02:13:58;4.46;;;3.5199999999999996;;
18471;SDS011;9365;48.258;12.518;2022-07-12T02:19:25;5.69;;;3.2699999999999996;;
18471;SDS011;9365;48.258;12.518;2022-07-12T02:24:53;3.3899999999999997;;;3.02;;
18471;SDS011;9365;48.258;12.518;2022-07-12T02:30:20;4.15;;;3.7199999999999998;;
18471;SDS011;9365;48.258;12.518;2022-07-12T02:35:48;10.169999999999998;;;3.94;;
18471;SDS011;9365;48.258;12.518;2022-07-12T02:41:16;9.57;;;3.4299999999999997;;
18471;SDS011;9365;48.258;12.518;2022-07-12T02:46:43;3.95;;;3.5100000000000002;;
18471;SDS011;9365;48.258;12.518;2022-07-12T02:52:11;5.21;;;3.6699999999999995;;
18471;SDS011;9365;48.258;12.518;2022-07-12T02:57:38;7.5;;;4.210000000000001;;
18471;SDS011;9365;48.258;12.518;2022-07-12T03:03:06;6.26;;;3.7299999999999995;;
18471;SDS011;9365;48.258;12.518;2022-07-12T03:08:34;7.65;;;4.279999999999999;;
18471;SDS011;9365;48.258;12.518;2022-07-12T03:14:01;4.18;;;3.6399999999999992;;
18471;SDS011;9365;48.258;12.518;2022-07-12T03:19:29;6.970000000000001;;;4.08;;
18471;SDS011;9365;48.258;12.518;2022-07-12T03:24:57;8.82;;;3.5;;
18471;SDS011;9365;48.258;12.518;2022-07-12T03:30:24;4.5200000000000005;;;3.72;;
18471;SDS011;9365;48.258;12.518;2022-07-12T03:35:52;8.120000000000001;;;4.12;;
18471;SDS011;9365;48.258;12.518;2022-07-12T03:41:20;7.83;;;3.84;;
18471;SDS011;9365;48.258;12.518;2022-07-12T03:46:47;4.29;;;3.1600000000000006;;
18471;SDS011;9365;48.258;12.518;2022-07-12T03:52:15;6.6800000000000015;;;3.7800000000000002;;
18471;SDS011;9365;48.258;12.518;2022-07-12T03:57:42;4.67;;;3.6100000000000003;;
18471;SDS011;9365;48.258;12.518;2022-07-12T04:03:10;7.690000000000002;;;4.05;;
18471;SDS011;9365;48.258;12.518;2022-07-12T04:08:38;3.46;;;2.8600000000000003;;
18471;SDS011;9365;48.258;12.518;2022-07-12T04:14:05;9.080000000000002;;;2.87;;
18471;SDS011;9365;48.258;12.518;2022-07-12T04:19:33;7.12;;;3.78;;
18471;SDS011;9365;48.258;12.518;2022-07-12T04:25:00;11.100000000000001;;;3.8800000000000003;;
18471;SDS011;9365;48.258;12.518;2022-07-12T04:30:28;5.8;;;3.6799999999999997;;
18471;SDS011;9365;48.258;12.518;2022-07-12T04:35:55;6.33;;;3.7299999999999995;;
18471;SDS011;9365;48.258;12.518;2022-07-12T04:41:23;5.1;;;3.599999999999999;;
18471;SDS011;9365;48.258;12.518;2022-07-12T04:46:51;6.28;;;3.7599999999999993;;
18471;SDS011;9365;48.258;12.518;2022-07-12T04:52:18;4.880000000000001;;;3.54;;
18471;SDS011;9365;48.258;12.518;2022-07-12T04:57:46;13.05;;;3.969999999999999;;
18471;SDS011;9365;48.258;12.518;2022-07-12T05:03:13;7.94;;;3.6799999999999997;;
18471;SDS011;9365;48.258;12.518;2022-07-12T05:08:41;5.4;;;3.0100000000000002;;
18471;SDS011;9365;48.258;12.518;2022-07-12T05:14:09;6.43;;;3.72;;
18471;SDS011;9365;48.258;12.518;2022-07-12T05:19:36;9.3;;;3.37;;
18471;SDS011;9365;48.258;12.518;2022-07-12T05:25:04;7.9;;;3.1700000000000004;;
18471;SDS011;9365;48.258;12.518;2022-07-12T05:30:32;4.09;;;2.84;;
18471;SDS011;9365;48.258;12.518;2022-07-12T05:35:59;3.3900000000000006;;;3.09;;
18471;SDS011;9365;48.258;12.518;2022-07-12T05:41:27;3.65;;;2.6;;
18471;SDS011;9365;48.258;12.518;2022-07-12T05:46:54;2.21;;;2.04;;
18471;SDS011;9365;48.258;12.518;2022-07-12T05:52:22;2.45;;;1.8199999999999998;;
18471;SDS011;9365;48.258;12.518;2022-07-12T05:57:50;2.9099999999999997;;;2.13;;
18471;SDS011;9365;48.258;12.518;2022-07-12T06:03:17;2.0;;;1.9;;
18471;SDS011;9365;48.258;12.518;2022-07-12T06:08:45;2.83;;;1.9600000000000004;;
18471;SDS011;9365;48.258;12.518;2022-07-12T06:14:12;1.5;;;1.45;;
18471;SDS011;9365;48.258;12.518;2022-07-12T06:19:40;1.4700000000000002;;;1.46;;
18471;SDS011;9365;48.258;12.518;2022-07-12T06:25:08;2.3600000000000003;;;1.37;;
18471;SDS011;9365;48.258;12.518;2022-07-12T06:30:36;3.17;;;1.44;;
18471;SDS011;9365;48.258;12.518;2022-07-12T06:36:04;1.23;;;1.23;;
18471;SDS011;9365;48.258;12.518;2022-07-12T06:41:31;1.83;;;1.15;;
18471;SDS011;9365;48.258;12.518;2022-07-12T06:47:00;2.0599999999999996;;;1.3900000000000001;;
18471;SDS011;9365;48.258;12.518;2022-07-12T06:52:27;2.1;;;1.3800000000000001;;
18471;SDS011;9365;48.258;12.518;2022-07-12T06:57:55;1.58;;;1.3;;
18471;SDS011;9365;48.258;12.518;2022-07-12T07:03:22;1.77;;;1.6199999999999999;;
18471;SDS011;9365;48.258;12.518;2022-07-12T07:08:50;1.06;;;0.9400000000000001;;
18471;SDS011;9365;48.258;12.518;2022-07-12T07:14:18;2.44;;;1.0399999999999998;;
18471;SDS011;9365;48.258;12.518;2022-07-12T07:19:45;0.79;;;0.75;;
18471;SDS011;9365;48.258;12.518;2022-07-12T07:25:13;0.9400000000000001;;;0.8300000000000001;;
18471;SDS011;9365;48.258;12.518;2022-07-12T07:30:40;2.07;;;0.8800000000000001;;
18471;SDS011;9365;48.258;12.518;2022-07-12T07:36:08;2.13;;;0.7300000000000001;;
18471;SDS011;9365;48.258;12.518;2022-07-12T07:41:35;0.6;;;0.43000000000000005;;
18471;SDS011;9365;48.258;12.518;2022-07-12T07:47:03;0.7;;;0.7;;
18471;SDS011;9365;48.258;12.518;2022-07-12T07:52:31;0.8700000000000001;;;0.64;;
18471;SDS011;9365;48.258;12.518;2022-07-12T07:57:59;1.73;;;0.6099999999999999;;
18471;SDS011;9365;48.258;12.518;2022-07-12T08:03:27;0.6599999999999999;;;0.5599999999999999;;
18471;SDS011;9365;48.258;12.518;2022-07-12T08:08:54;0.6900000000000001;;;0.6900000000000001;;
18471;SDS011;9365;48.258;12.518;2022-07-12T08:14:22;1.2899999999999998;;;0.72;;
18471;SDS011;9365;48.258;12.518;2022-07-12T08:19:50;0.7;;;0.6799999999999999;;
18471;SDS011;9365;48.258;12.518;2022-07-12T08:25:17;1.24;;;0.5399999999999999;;
18471;SDS011;9365;48.258;12.518;2022-07-12T08:30:45;0.76;;;0.76;;
18471;SDS011;9365;48.258;12.518;2022-07-12T08:36:12;0.89;;;0.89;;
18471;SDS011;9365;48.258;12.518;2022-07-12T08:41:40;1.3399999999999999;;;0.8300000000000001;;
18471;SDS011;9365;48.258;12.518;2022-07-12T08:47:07;1.23;;;0.93;;
18471;SDS011;9365;48.258;12.518;2022-07-12T08:52:36;0.8300000000000001;;;0.7700000000000001;;
18471;SDS011;9365;48.258;12.518;2022-07-12T08:58:13;0.8;;;0.8;;
18471;SDS011;9365;48.258;12.518;2022-07-12T09:03:42;0.69;;;0.69;;
18471;SDS011;9365;48.258;12.518;2022-07-12T09:09:10;0.6599999999999999;;;0.5999999999999999;;
18471;SDS011;9365;48.258;12.518;2022-07-12T09:14:38;1.5899999999999999;;;0.8099999999999999;;
18471;SDS011;9365;48.258;12.518;2022-07-12T09:20:07;0.9800000000000001;;;0.47000000000000003;;
18471;SDS011;9365;48.258;12.518;2022-07-12T09:25:37;0.7;;;0.67;;
18471;SDS011;9365;48.258;12.518;2022-07-12T09:31:04;0.5499999999999999;;;0.5499999999999999;;
18471;SDS011;9365;48.258;12.518;2022-07-12T09:36:32;0.9199999999999999;;;0.74;;
18471;SDS011;9365;48.258;12.518;2022-07-12T09:42:00;3.5100000000000002;;;0.7300000000000001;;
18471;SDS011;9365;48.258;12.518;2022-07-12T09:47:27;0.76;;;0.7;;
18471;SDS011;9365;48.258;12.518;2022-07-12T09:52:55;0.5499999999999999;;;0.5299999999999999;;
18471;SDS011;9365;48.258;12.518;2022-07-12T09:58:27;0.9600000000000002;;;0.86;;
18471;SDS011;9365;48.258;12.518;2022-07-12T10:03:58;0.71;;;0.6699999999999999;;
18471;SDS011;9365;48.258;12.518;2022-07-12T10:09:26;2.7500000000000004;;;0.6699999999999999;;
18471;SDS011;9365;48.258;12.518;2022-07-12T10:14:55;1.07;;;0.7699999999999999;;
18471;SDS011;9365;48.258;12.518;2022-07-12T10:20:25;1.19;;;0.7699999999999999;;
18471;SDS011;9365;48.258;12.518;2022-07-12T10:25:53;0.7699999999999999;;;0.7699999999999999;;
18471;SDS011;9365;48.258;12.518;2022-07-12T10:31:21;2.48;;;0.5999999999999999;;
18471;SDS011;9365;48.258;12.518;2022-07-12T10:37:07;0.7;;;0.7;;
18471;SDS011;9365;48.258;12.518;2022-07-12T10:42:34;1.0699999999999998;;;0.55;;
18471;SDS011;9365;48.258;12.518;2022-07-12T10:48:03;0.5299999999999999;;;0.5299999999999999;;
18471;SDS011;9365;48.258;12.518;2022-07-12T10:53:31;0.5599999999999999;;;0.5499999999999999;;
18471;SDS011;9365;48.258;12.518;2022-07-12T10:58:59;0.8800000000000001;;;0.6399999999999999;;
18471;SDS011;9365;48.258;12.518;2022-07-12T11:04:27;0.6;;;0.6;;
18471;SDS011;9365;48.258;12.518;2022-07-12T11:09:55;0.49000000000000005;;;0.49000000000000005;;
18471;SDS011;9365;48.258;12.518;2022-07-12T11:15:23;2.6399999999999997;;;0.5999999999999999;;
18471;SDS011;9365;48.258;12.518;2022-07-12T11:20:54;1.26;;;0.48;;
18471;SDS011;9365;48.258;12.518;2022-07-12T11:26:21;0.8400000000000001;;;0.5899999999999999;;
18471;SDS011;9365;48.258;12.518;2022-07-12T11:31:49;0.9199999999999999;;;0.6;;
18471;SDS011;9365;48.258;12.518;2022-07-12T11:37:17;1.2500000000000002;;;0.6599999999999999;;
18471;SDS011;9365;48.258;12.518;2022-07-12T11:42:51;0.5599999999999999;;;0.5599999999999999;;
18471;SDS011;9365;48.258;12.518;2022-07-12T11:48:19;0.48;;;0.48;;
18471;SDS011;9365;48.258;12.518;2022-07-12T11:53:52;1.83;;;0.5499999999999999;;
18471;SDS011;9365;48.258;12.518;2022-07-12T11:59:22;0.57;;;0.57;;
18471;SDS011;9365;48.258;12.518;2022-07-12T12:04:50;0.6299999999999999;;;0.6299999999999999;;
18471;SDS011;9365;48.258;12.518;2022-07-12T12:10:18;0.7100000000000001;;;0.5499999999999999;;
18471;SDS011;9365;48.258;12.518;2022-07-12T12:15:50;0.6399999999999999;;;0.6399999999999999;;
18471;SDS011;9365;48.258;12.518;2022-07-12T12:21:17;1.57;;;0.71;;
18471;SDS011;9365;48.258;12.518;2022-07-12T12:26:53;0.8;;;0.7299999999999999;;
18471;SDS011;9365;48.258;12.518;2022-07-12T12:32:21;0.7899999999999998;;;0.6300000000000001;;
18471;SDS011;9365;48.258;12.518;2022-07-12T12:37:51;1.3399999999999999;;;1.15;;
18471;SDS011;9365;48.258;12.518;2022-07-12T12:43:19;1.7100000000000002;;;1.55;;
18471;SDS011;9365;48.258;12.518;2022-07-12T12:48:47;0.7699999999999999;;;0.7699999999999999;;
18471;SDS011;9365;48.258;12.518;2022-07-12T12:54:15;0.59;;;0.59;;
18471;SDS011;9365;48.258;12.518;2022-07-12T12:59:42;5.220000000000001;;;0.8200000000000001;;
18471;SDS011;9365;48.258;12.518;2022-07-12T13:05:10;0.99;;;0.8800000000000001;;
18471;SDS011;9365;48.258;12.518;2022-07-12T13:10:38;0.76;;;0.76;;
18471;SDS011;9365;48.258;12.518;2022-07-12T13:16:06;6.1;;;0.7900000000000001;;
18471;SDS011;9365;48.258;12.518;2022-07-12T13:21:33;2.23;;;0.9799999999999999;;
18471;SDS011;9365;48.258;12.518;2022-07-12T13:27:01;1.3599999999999999;;;0.8;;
18471;SDS011;9365;48.258;12.518;2022-07-12T13:32:29;0.8700000000000001;;;0.8700000000000001;;
18471;SDS011;9365;48.258;12.518;2022-07-12T13:37:57;0.79;;;0.79;;
18471;SDS011;9365;48.258;12.518;2022-07-12T13:43:25;1.2899999999999998;;;0.9200000000000002;;
18471;SDS011;9365;48.258;12.518;2022-07-12T13:48:53;0.75;;;0.75;;
18471;SDS011;9365;48.258;12.518;2022-07-12T13:54:21;6.9;;;0.8099999999999999;;
18471;SDS011;9365;48.258;12.518;2022-07-12T13:59:48;1.1;;;0.69;;
18471;SDS011;9365;48.258;12.518;2022-07-12T14:05:16;1.4200000000000002;;;0.8099999999999999;;
18471;SDS011;9365;48.258;12.518;2022-07-12T14:10:44;1.67;;;1.0299999999999998;;
18471;SDS011;9365;48.258;12.518;2022-07-12T14:16:13;5.91;;;1.67;;
18471;SDS011;9365;48.258;12.518;2022-07-12T14:21:41;1.5599999999999998;;;1.12;;
18471;SDS011;9365;48.258;12.518;2022-07-12T14:27:08;0.78;;;0.78;;
18471;SDS011;9365;48.258;12.518;2022-07-12T14:32:36;1.23;;;0.72;;
18471;SDS011;9365;48.258;12.518;2022-07-12T14:38:04;0.7699999999999999;;;0.7699999999999999;;
18471;SDS011;9365;48.258;12.518;2022-07-12T14:43:32;1.23;;;0.8300000000000001;;
18471;SDS011;9365;48.258;12.518;2022-07-12T14:49:00;1.8399999999999999;;;0.78;;
18471;SDS011;9365;48.258;12.518;2022-07-12T14:54:27;2.23;;;1.01;;
18471;SDS011;9365;48.258;12.518;2022-07-12T14:59:55;3.06;;;0.8400000000000001;;
18471;SDS011;9365;48.258;12.518;2022-07-12T15:05:23;2.2800000000000002;;;0.85;;
18471;SDS011;9365;48.258;12.518;2022-07-12T15:10:50;1.3400000000000003;;;0.7699999999999999;;
18471;SDS011;9365;48.258;12.518;2022-07-12T15:16:18;0.78;;;0.78;;
18471;SDS011;9365;48.258;12.518;2022-07-12T15:21:46;1.72;;;0.8099999999999999;;
18471;SDS011;9365;48.258;12.518;2022-07-12T15:27:14;0.6599999999999999;;;0.6599999999999999;;
18471;SDS011;9365;48.258;12.518;2022-07-12T15:32:41;2.5599999999999996;;;0.6599999999999999;;
18471;SDS011;9365;48.258;12.518;2022-07-12T15:38:09;0.9000000000000001;;;0.75;;
18471;SDS011;9365;48.258;12.518;2022-07-12T15:43:37;4.09;;;1.02;;
18471;SDS011;9365;48.258;12.518;2022-07-12T15:49:04;1.2799999999999998;;;0.78;;
18471;SDS011;9365;48.258;12.518;2022-07-12T15:54:32;1.8400000000000003;;;0.5199999999999999;;
18471;SDS011;9365;48.258;12.518;2022-07-12T16:00:00;1.0500000000000003;;;0.8;;
18471;SDS011;9365;48.258;12.518;2022-07-12T16:05:28;1.43;;;0.79;;
18471;SDS011;9365;48.258;12.518;2022-07-12T16:10:55;3.03;;;0.95;;
18471;SDS011;9365;48.258;12.518;2022-07-12T16:16:23;6.45;;;1.19;;
18471;SDS011;9365;48.258;12.518;2022-07-12T16:21:51;13.969999999999999;;;3.0;;
18471;SDS011;9365;48.258;12.518;2022-07-12T16:27:19;4.220000000000001;;;0.95;;
18471;SDS011;9365;48.258;12.518;2022-07-12T16:32:46;1.33;;;0.8400000000000002;;
18471;SDS011;9365;48.258;12.518;2022-07-12T16:38:14;22.28;;;4.58;;
18471;SDS011;9365;48.258;12.518;2022-07-12T16:43:42;6.459999999999999;;;1.5599999999999998;;
18471;SDS011;9365;48.258;12.518;2022-07-12T16:49:10;0.6699999999999999;;;0.61;;
18471;SDS011;9365;48.258;12.518;2022-07-12T16:54:37;0.5900000000000001;;;0.5900000000000001;;
18471;SDS011;9365;48.258;12.518;2022-07-12T17:00:06;1.4700000000000002;;;0.6599999999999999;;
18471;SDS011;9365;48.258;12.518;2022-07-12T17:05:34;3.0300000000000002;;;0.9100000000000001;;
18471;SDS011;9365;48.258;12.518;2022-07-12T17:11:01;3.88;;;1.0;;
18471;SDS011;9365;48.258;12.518;2022-07-12T17:16:29;1.35;;;0.8;;
18471;SDS011;9365;48.258;12.518;2022-07-12T17:21:57;1.24;;;0.7699999999999999;;
18471;SDS011;9365;48.258;12.518;2022-07-12T17:27:25;0.85;;;0.6300000000000001;;
18471;SDS011;9365;48.258;12.518;2022-07-12T17:32:52;1.1099999999999999;;;0.72;;
18471;SDS011;9365;48.258;12.518;2022-07-12T17:38:20;1.22;;;0.85;;
18471;SDS011;9365;48.258;12.518;2022-07-12T17:43:47;0.6799999999999999;;;0.6799999999999999;;
18471;SDS011;9365;48.258;12.518;2022-07-12T17:49:15;3.25;;;1.0;;
18471;SDS011;9365;48.258;12.518;2022-07-12T17:54:42;0.79;;;0.79;;
18471;SDS011;9365;48.258;12.518;2022-07-12T18:00:10;1.09;;;0.6;;
18471;SDS011;9365;48.258;12.518;2022-07-12T18:05:38;1.39;;;1.3399999999999999;;
18471;SDS011;9365;48.258;12.518;2022-07-12T18:11:05;1.58;;;0.7299999999999999;;
18471;SDS011;9365;48.258;12.518;2022-07-12T18:16:33;5.82;;;0.8600000000000001;;
18471;SDS011;9365;48.258;12.518;2022-07-12T18:22:00;1.1300000000000001;;;0.9;;
18471;SDS011;9365;48.258;12.518;2022-07-12T18:27:28;2.03;;;0.89;;
18471;SDS011;9365;48.258;12.518;2022-07-12T18:32:56;0.9799999999999999;;;0.89;;
18471;SDS011;9365;48.258;12.518;2022-07-12T18:38:24;1.65;;;0.9200000000000002;;
18471;SDS011;9365;48.258;12.518;2022-07-12T18:43:52;1.2300000000000002;;;1.2000000000000002;;
18471;SDS011;9365;48.258;12.518;2022-07-12T18:49:21;0.85;;;0.85;;
18471;SDS011;9365;48.258;12.518;2022-07-12T18:54:49;2.44;;;1.4599999999999997;;
18471;SDS011;9365;48.258;12.518;2022-07-12T19:00:16;5.25;;;1.77;;
18471;SDS011;9365;48.258;12.518;2022-07-12T19:05:44;0.9600000000000002;;;0.8400000000000001;;
18471;SDS011;9365;48.258;12.518;2022-07-12T19:11:11;1.27;;;0.8700000000000001;;
18471;SDS011;9365;48.258;12.518;2022-07-12T19:16:40;1.9999999999999996;;;1.01;;
18471;SDS011;9365;48.258;12.518;2022-07-12T19:22:08;1.2899999999999998;;;1.0699999999999998;;
18471;SDS011;9365;48.258;12.518;2022-07-12T19:27:35;1.59;;;1.2599999999999998;;
18471;SDS011;9365;48.258;12.518;2022-07-12T19:33:03;5.1899999999999995;;;2.4200000000000004;;
18471;SDS011;9365;48.258;12.518;2022-07-12T19:38:30;5.359999999999999;;;0.97;;
18471;SDS011;9365;48.258;12.518;2022-07-12T19:43:58;1.4600000000000002;;;1.14;;
18471;SDS011;9365;48.258;12.518;2022-07-12T19:49:26;1.7599999999999998;;;1.5;;
18471;SDS011;9365;48.258;12.518;2022-07-12T19:54:53;3.6400000000000006;;;1.5799999999999996;;
18471;SDS011;9365;48.258;12.518;2022-07-12T20:00:21;2.3699999999999997;;;1.2200000000000002;;
18471;SDS011;9365;48.258;12.518;2022-07-12T20:05:48;2.7600000000000002;;;1.3800000000000001;;
18471;SDS011;9365;48.258;12.518;2022-07-12T20:11:16;4.7;;;2.41;;
18471;SDS011;9365;48.258;12.518;2022-07-12T20:16:43;1.5699999999999998;;;1.47;;
18471;SDS011;9365;48.258;12.518;2022-07-12T20:22:11;2.16;;;1.2100000000000002;;
18471;SDS011;9365;48.258;12.518;2022-07-12T20:27:38;2.02;;;1.7200000000000002;;
18471;SDS011;9365;48.258;12.518;2022-07-12T20:33:06;3.35;;;1.34;;
18471;SDS011;9365;48.258;12.518;2022-07-12T20:38:34;1.43;;;1.18;;
18471;SDS011;9365;48.258;12.518;2022-07-12T20:44:01;1.5;;;1.3900000000000001;;
18471;SDS011;9365;48.258;12.518;2022-07-12T20:49:29;3.3600000000000003;;;1.23;;
18471;SDS011;9365;48.258;12.518;2022-07-12T20:54:56;1.5499999999999998;;;1.48;;
18471;SDS011;9365;48.258;12.518;2022-07-12T21:00:24;2.0200000000000005;;;1.58;;
18471;SDS011;9365;48.258;12.518;2022-07-12T21:05:52;3.66;;;1.8;;
18471;SDS011;9365;48.258;12.518;2022-07-12T21:11:20;3.53;;;3.15;;
18471;SDS011;9365;48.258;12.518;2022-07-12T21:16:47;2.1399999999999997;;;1.64;;
18471;SDS011;9365;48.258;12.518;2022-07-12T21:22:15;2.79;;;1.6800000000000002;;
18471;SDS011;9365;48.258;12.518;2022-07-12T21:27:43;1.78;;;1.54;;
18471;SDS011;9365;48.258;12.518;2022-07-12T21:33:11;1.6600000000000001;;;1.5699999999999998;;
18471;SDS011;9365;48.258;12.518;2022-07-12T21:38:38;1.92;;;1.6800000000000002;;
18471;SDS011;9365;48.258;12.518;2022-07-12T21:44:06;3.3600000000000003;;;1.5899999999999999;;
18471;SDS011;9365;48.258;12.518;2022-07-12T21:49:34;3.1399999999999997;;;1.7200000000000002;;
18471;SDS011;9365;48.258;12.518;2022-07-12T21:55:01;3.1500000000000004;;;1.5699999999999998;;
18471;SDS011;9365;48.258;12.518;2022-07-12T22:00:29;1.72;;;1.6300000000000001;;
18471;SDS011;9365;48.258;12.518;2022-07-12T22:05:57;2.3200000000000003;;;1.55;;
18471;SDS011;9365;48.258;12.518;2022-07-12T22:11:24;2.4799999999999995;;;2.17;;
18471;SDS011;9365;48.258;12.518;2022-07-12T22:16:52;12.43;;;2.17;;
18471;SDS011;9365;48.258;12.518;2022-07-12T22:22:19;3.5799999999999996;;;1.6800000000000002;;
18471;SDS011;9365;48.258;12.518;2022-07-12T22:27:47;4.819999999999999;;;1.8099999999999998;;
18471;SDS011;9365;48.258;12.518;2022-07-12T22:33:14;1.9699999999999995;;;1.8700000000000003;;
18471;SDS011;9365;48.258;12.518;2022-07-12T22:38:42;5.14;;;2.4400000000000004;;
18471;SDS011;9365;48.258;12.518;2022-07-12T22:44:09;6.21;;;2.28;;
18471;SDS011;9365;48.258;12.518;2022-07-12T22:49:37;2.1000000000000005;;;1.95;;
18471;SDS011;9365;48.258;12.518;2022-07-12T22:55:06;2.8;;;2.52;;
18471;SDS011;9365;48.258;12.518;2022-07-12T23:00:34;3.85;;;2.35;;
18471;SDS011;9365;48.258;12.518;2022-07-12T23:06:01;4.35;;;2.0200000000000005;;
18471;SDS011;9365;48.258;12.518;2022-07-12T23:11:29;2.3099999999999996;;;1.9;;
18471;SDS011;9365;48.258;12.518;2022-07-12T23:16:56;3.750000000000001;;;1.8599999999999999;;
18471;SDS011;9365;48.258;12.518;2022-07-12T23:22:24;3.3600000000000003;;;2.0700000000000003;;
18471;SDS011;9365;48.258;12.518;2022-07-12T23:27:51;8.01;;;1.81;;
18471;SDS011;9365;48.258;12.518;2022-07-12T23:33:19;2.96;;;2.04;;
18471;SDS011;9365;48.258;12.518;2022-07-12T23:38:47;7.589999999999999;;;2.29;;
18471;SDS011;9365;48.258;12.518;2022-07-12T23:44:14;1.94;;;1.8399999999999999;;
18471;SDS011;9365;48.258;12.518;2022-07-12T23:49:42;2.22;;;2.0700000000000003;;
18471;SDS011;9365;48.258;12.518;2022-07-12T23:55:10;2.77;;;2.15;;
